Weather at Viewfield Airstrip

Public forecast

Using degrees Celsius for public forecast. Weather courtesy of forecast.io.

Closest aviation weather report (METAR) to Viewfield Airstrip

Closest report is RAF Lossiemouth, 5.4 nm (10.0 km) WNW. Retrieved 2021/09/24 17:50 UTC (1 hour ago):

EGQS 241750Z 30008KT 9999 FEW022 BKN030 14/11 Q1006 RMK BLU

Closest aviation forecast (TAF) to Viewfield Airstrip

Closest forecast is RAF Lossiemouth, 5.4 nm (10.0 km) WNW. Retrieved 2021/09/24 18:48 UTC (6 minutes ago):

TAF TAF EGQS 241642Z 2418/2512 26012KT 9999 FEW025 SCT035